sensor_id;sensor_type;location;lat;lon;timestamp;P1;durP1;ratioP1;P2;durP2;ratioP2
68523;SDS011;55524;51.380;13.372;2023-08-31T00:00:48;3.78;;;3.47;;
68523;SDS011;55524;51.380;13.372;2023-08-31T00:03:16;4.47;;;3.25;;
68523;SDS011;55524;51.380;13.372;2023-08-31T00:05:44;2.92;;;2.72;;
68523;SDS011;55524;51.380;13.372;2023-08-31T00:08:11;2.78;;;2.58;;
68523;SDS011;55524;51.380;13.372;2023-08-31T00:10:38;1.75;;;1.65;;
68523;SDS011;55524;51.380;13.372;2023-08-31T00:13:05;2.05;;;1.95;;
68523;SDS011;55524;51.380;13.372;2023-08-31T00:15:32;3.38;;;2.40;;
68523;SDS011;55524;51.380;13.372;2023-08-31T00:18:00;2.35;;;2.13;;
68523;SDS011;55524;51.380;13.372;2023-08-31T00:20:30;2.10;;;1.90;;
68523;SDS011;55524;51.380;13.372;2023-08-31T00:22:58;6.13;;;1.90;;
68523;SDS011;55524;51.380;13.372;2023-08-31T00:25:25;3.50;;;1.63;;
68523;SDS011;55524;51.380;13.372;2023-08-31T00:27:51;1.60;;;1.50;;
68523;SDS011;55524;51.380;13.372;2023-08-31T00:30:18;1.83;;;1.50;;
68523;SDS011;55524;51.380;13.372;2023-08-31T00:32:45;1.58;;;1.20;;
68523;SDS011;55524;51.380;13.372;2023-08-31T00:35:15;1.40;;;1.30;;
68523;SDS011;55524;51.380;13.372;2023-08-31T00:37:42;1.13;;;1.02;;
68523;SDS011;55524;51.380;13.372;2023-08-31T00:40:08;1.15;;;1.05;;
68523;SDS011;55524;51.380;13.372;2023-08-31T00:42:38;1.20;;;1.10;;
68523;SDS011;55524;51.380;13.372;2023-08-31T00:45:05;0.95;;;0.90;;
68523;SDS011;55524;51.380;13.372;2023-08-31T00:47:32;1.45;;;0.90;;
68523;SDS011;55524;51.380;13.372;2023-08-31T00:49:58;1.77;;;0.88;;
68523;SDS011;55524;51.380;13.372;2023-08-31T00:52:25;0.70;;;0.70;;
68523;SDS011;55524;51.380;13.372;2023-08-31T00:54:52;1.23;;;1.10;;
68523;SDS011;55524;51.380;13.372;2023-08-31T00:57:19;0.90;;;0.90;;
68523;SDS011;55524;51.380;13.372;2023-08-31T00:59:45;0.93;;;0.93;;
68523;SDS011;55524;51.380;13.372;2023-08-31T01:02:15;3.53;;;0.90;;
68523;SDS011;55524;51.380;13.372;2023-08-31T01:07:46;0.73;;;0.73;;
68523;SDS011;55524;51.380;13.372;2023-08-31T01:10:32;0.80;;;0.80;;
68523;SDS011;55524;51.380;13.372;2023-08-31T01:13:12;1.88;;;0.80;;
68523;SDS011;55524;51.380;13.372;2023-08-31T01:15:41;0.85;;;0.80;;
68523;SDS011;55524;51.380;13.372;2023-08-31T01:18:11;1.40;;;0.83;;
68523;SDS011;55524;51.380;13.372;2023-08-31T01:20:46;2.67;;;0.82;;
68523;SDS011;55524;51.380;13.372;2023-08-31T01:26:12;0.77;;;0.77;;
68523;SDS011;55524;51.380;13.372;2023-08-31T01:28:39;0.80;;;0.80;;
68523;SDS011;55524;51.380;13.372;2023-08-31T01:31:05;1.10;;;0.80;;
68523;SDS011;55524;51.380;13.372;2023-08-31T01:33:32;0.98;;;0.98;;
68523;SDS011;55524;51.380;13.372;2023-08-31T01:35:58;1.20;;;1.10;;
68523;SDS011;55524;51.380;13.372;2023-08-31T01:38:28;1.10;;;1.00;;
68523;SDS011;55524;51.380;13.372;2023-08-31T01:41:01;2.47;;;1.10;;
68523;SDS011;55524;51.380;13.372;2023-08-31T01:43:31;1.48;;;1.00;;
68523;SDS011;55524;51.380;13.372;2023-08-31T01:45:58;1.10;;;1.00;;
68523;SDS011;55524;51.380;13.372;2023-08-31T01:48:25;3.28;;;1.02;;
68523;SDS011;55524;51.380;13.372;2023-08-31T01:50:52;1.10;;;1.00;;
68523;SDS011;55524;51.380;13.372;2023-08-31T01:53:18;1.17;;;1.00;;
68523;SDS011;55524;51.380;13.372;2023-08-31T01:55:44;2.40;;;1.00;;
68523;SDS011;55524;51.380;13.372;2023-08-31T01:58:10;2.13;;;1.08;;
68523;SDS011;55524;51.380;13.372;2023-08-31T02:00:37;2.28;;;1.20;;
68523;SDS011;55524;51.380;13.372;2023-08-31T02:03:03;1.20;;;1.10;;
68523;SDS011;55524;51.380;13.372;2023-08-31T02:05:31;0.90;;;0.90;;
68523;SDS011;55524;51.380;13.372;2023-08-31T02:07:57;1.08;;;1.00;;
68523;SDS011;55524;51.380;13.372;2023-08-31T02:10:23;2.50;;;1.00;;
68523;SDS011;55524;51.380;13.372;2023-08-31T02:12:51;1.48;;;1.02;;
68523;SDS011;55524;51.380;13.372;2023-08-31T02:15:17;1.40;;;1.30;;
68523;SDS011;55524;51.380;13.372;2023-08-31T02:17:43;1.17;;;1.00;;
68523;SDS011;55524;51.380;13.372;2023-08-31T02:20:10;1.65;;;1.00;;
68523;SDS011;55524;51.380;13.372;2023-08-31T02:22:39;1.13;;;1.02;;
68523;SDS011;55524;51.380;13.372;2023-08-31T02:25:05;1.25;;;1.10;;
68523;SDS011;55524;51.380;13.372;2023-08-31T02:27:32;1.08;;;0.98;;
68523;SDS011;55524;51.380;13.372;2023-08-31T02:29:58;1.48;;;1.10;;
68523;SDS011;55524;51.380;13.372;2023-08-31T02:32:24;1.08;;;1.00;;
68523;SDS011;55524;51.380;13.372;2023-08-31T02:34:50;1.90;;;1.10;;
68523;SDS011;55524;51.380;13.372;2023-08-31T02:37:17;1.55;;;1.05;;
68523;SDS011;55524;51.380;13.372;2023-08-31T02:39:43;1.15;;;1.05;;
68523;SDS011;55524;51.380;13.372;2023-08-31T02:42:09;1.00;;;1.00;;
68523;SDS011;55524;51.380;13.372;2023-08-31T02:44:35;2.63;;;1.05;;
68523;SDS011;55524;51.380;13.372;2023-08-31T02:47:02;1.98;;;1.00;;
68523;SDS011;55524;51.380;13.372;2023-08-31T02:49:28;1.20;;;1.10;;
68523;SDS011;55524;51.380;13.372;2023-08-31T02:51:54;2.83;;;1.00;;
68523;SDS011;55524;51.380;13.372;2023-08-31T02:54:20;0.90;;;0.90;;
68523;SDS011;55524;51.380;13.372;2023-08-31T02:56:47;1.02;;;0.93;;
68523;SDS011;55524;51.380;13.372;2023-08-31T02:59:13;1.20;;;1.08;;
68523;SDS011;55524;51.380;13.372;2023-08-31T03:01:39;1.40;;;1.17;;
68523;SDS011;55524;51.380;13.372;2023-08-31T03:04:06;1.10;;;1.00;;
68523;SDS011;55524;51.380;13.372;2023-08-31T03:06:32;1.30;;;1.20;;
68523;SDS011;55524;51.380;13.372;2023-08-31T03:08:59;1.33;;;1.10;;
68523;SDS011;55524;51.380;13.372;2023-08-31T03:11:26;1.35;;;1.00;;
68523;SDS011;55524;51.380;13.372;2023-08-31T03:13:52;1.10;;;0.90;;
68523;SDS011;55524;51.380;13.372;2023-08-31T03:16:19;2.15;;;1.10;;
68523;SDS011;55524;51.380;13.372;2023-08-31T03:18:45;1.20;;;1.00;;
68523;SDS011;55524;51.380;13.372;2023-08-31T03:21:11;1.33;;;1.10;;
68523;SDS011;55524;51.380;13.372;2023-08-31T03:23:38;1.38;;;1.10;;
68523;SDS011;55524;51.380;13.372;2023-08-31T03:26:07;1.10;;;1.00;;
68523;SDS011;55524;51.380;13.372;2023-08-31T03:28:34;1.27;;;1.17;;
68523;SDS011;55524;51.380;13.372;2023-08-31T03:31:01;3.13;;;1.20;;
68523;SDS011;55524;51.380;13.372;2023-08-31T03:33:27;1.95;;;1.20;;
68523;SDS011;55524;51.380;13.372;2023-08-31T03:35:54;1.40;;;1.30;;
68523;SDS011;55524;51.380;13.372;2023-08-31T03:38:27;1.30;;;1.20;;
68523;SDS011;55524;51.380;13.372;2023-08-31T03:40:54;1.70;;;1.10;;
68523;SDS011;55524;51.380;13.372;2023-08-31T03:43:21;1.65;;;1.40;;
68523;SDS011;55524;51.380;13.372;2023-08-31T03:45:47;1.17;;;1.10;;
68523;SDS011;55524;51.380;13.372;2023-08-31T03:48:14;3.78;;;1.50;;
68523;SDS011;55524;51.380;13.372;2023-08-31T03:50:43;1.20;;;1.20;;
68523;SDS011;55524;51.380;13.372;2023-08-31T03:53:09;1.48;;;1.10;;
68523;SDS011;55524;51.380;13.372;2023-08-31T03:55:36;1.40;;;1.30;;
68523;SDS011;55524;51.380;13.372;2023-08-31T03:58:02;1.20;;;1.15;;
68523;SDS011;55524;51.380;13.372;2023-08-31T04:00:28;2.55;;;1.20;;
68523;SDS011;55524;51.380;13.372;2023-08-31T04:02:55;1.63;;;1.10;;
68523;SDS011;55524;51.380;13.372;2023-08-31T04:05:22;1.33;;;1.20;;
68523;SDS011;55524;51.380;13.372;2023-08-31T04:07:48;1.40;;;1.27;;
68523;SDS011;55524;51.380;13.372;2023-08-31T04:10:14;2.03;;;1.15;;
68523;SDS011;55524;51.380;13.372;2023-08-31T04:12:41;1.35;;;1.25;;
68523;SDS011;55524;51.380;13.372;2023-08-31T04:15:08;1.50;;;1.40;;
68523;SDS011;55524;51.380;13.372;2023-08-31T04:17:34;1.60;;;1.50;;
68523;SDS011;55524;51.380;13.372;2023-08-31T04:20:01;2.38;;;1.40;;
68523;SDS011;55524;51.380;13.372;2023-08-31T04:22:29;1.70;;;1.58;;
68523;SDS011;55524;51.380;13.372;2023-08-31T04:24:55;1.80;;;1.70;;
68523;SDS011;55524;51.380;13.372;2023-08-31T04:27:21;2.40;;;1.45;;
68523;SDS011;55524;51.380;13.372;2023-08-31T04:29:47;1.30;;;1.20;;
68523;SDS011;55524;51.380;13.372;2023-08-31T04:32:14;1.42;;;1.33;;
68523;SDS011;55524;51.380;13.372;2023-08-31T04:34:40;3.47;;;1.50;;
68523;SDS011;55524;51.380;13.372;2023-08-31T04:37:06;2.42;;;1.98;;
68523;SDS011;55524;51.380;13.372;2023-08-31T04:39:32;2.13;;;1.85;;
68523;SDS011;55524;51.380;13.372;2023-08-31T04:41:58;1.80;;;1.70;;
68523;SDS011;55524;51.380;13.372;2023-08-31T04:44:25;1.95;;;1.75;;
68523;SDS011;55524;51.380;13.372;2023-08-31T04:46:51;2.30;;;1.80;;
68523;SDS011;55524;51.380;13.372;2023-08-31T04:49:17;3.10;;;1.70;;
68523;SDS011;55524;51.380;13.372;2023-08-31T04:51:44;1.55;;;1.45;;
68523;SDS011;55524;51.380;13.372;2023-08-31T04:54:11;4.07;;;1.67;;
68523;SDS011;55524;51.380;13.372;2023-08-31T04:56:37;3.03;;;1.90;;
68523;SDS011;55524;51.380;13.372;2023-08-31T04:59:04;2.05;;;1.65;;
68523;SDS011;55524;51.380;13.372;2023-08-31T05:01:30;3.45;;;1.50;;
68523;SDS011;55524;51.380;13.372;2023-08-31T05:03:56;1.90;;;1.80;;
68523;SDS011;55524;51.380;13.372;2023-08-31T05:06:23;2.70;;;1.77;;
68523;SDS011;55524;51.380;13.372;2023-08-31T05:08:50;1.83;;;1.70;;
68523;SDS011;55524;51.380;13.372;2023-08-31T05:11:16;1.60;;;1.50;;
68523;SDS011;55524;51.380;13.372;2023-08-31T05:13:42;2.10;;;1.92;;
68523;SDS011;55524;51.380;13.372;2023-08-31T05:16:09;4.57;;;2.10;;
68523;SDS011;55524;51.380;13.372;2023-08-31T05:18:35;2.60;;;1.88;;
68523;SDS011;55524;51.380;13.372;2023-08-31T05:21:03;2.33;;;1.92;;
68523;SDS011;55524;51.380;13.372;2023-08-31T05:23:29;3.42;;;1.85;;
68523;SDS011;55524;51.380;13.372;2023-08-31T05:25:56;10.93;;;2.40;;
68523;SDS011;55524;51.380;13.372;2023-08-31T05:28:22;6.70;;;1.92;;
68523;SDS011;55524;51.380;13.372;2023-08-31T05:30:49;2.67;;;1.85;;
68523;SDS011;55524;51.380;13.372;2023-08-31T05:33:19;13.68;;;2.90;;
68523;SDS011;55524;51.380;13.372;2023-08-31T05:35:50;10.65;;;2.92;;
68523;SDS011;55524;51.380;13.372;2023-08-31T05:38:17;3.50;;;2.65;;
68523;SDS011;55524;51.380;13.372;2023-08-31T05:40:43;3.22;;;2.65;;
68523;SDS011;55524;51.380;13.372;2023-08-31T05:43:13;3.65;;;2.28;;
68523;SDS011;55524;51.380;13.372;2023-08-31T05:45:41;6.43;;;2.70;;
68523;SDS011;55524;51.380;13.372;2023-08-31T05:48:07;7.40;;;2.72;;
68523;SDS011;55524;51.380;13.372;2023-08-31T05:50:34;8.18;;;2.78;;
68523;SDS011;55524;51.380;13.372;2023-08-31T05:53:03;18.02;;;3.60;;
68523;SDS011;55524;51.380;13.372;2023-08-31T05:55:30;9.65;;;2.80;;
68523;SDS011;55524;51.380;13.372;2023-08-31T05:57:57;3.13;;;2.83;;
68523;SDS011;55524;51.380;13.372;2023-08-31T06:00:24;15.48;;;4.05;;
68523;SDS011;55524;51.380;13.372;2023-08-31T06:02:50;17.92;;;4.53;;
68523;SDS011;55524;51.380;13.372;2023-08-31T06:05:16;4.15;;;3.17;;
68523;SDS011;55524;51.380;13.372;2023-08-31T06:07:43;5.38;;;2.90;;
68523;SDS011;55524;51.380;13.372;2023-08-31T06:10:09;10.05;;;3.45;;
68523;SDS011;55524;51.380;13.372;2023-08-31T06:12:36;5.72;;;3.22;;
68523;SDS011;55524;51.380;13.372;2023-08-31T06:15:03;5.78;;;3.40;;
68523;SDS011;55524;51.380;13.372;2023-08-31T06:17:29;11.50;;;3.95;;
68523;SDS011;55524;51.380;13.372;2023-08-31T06:19:55;7.57;;;3.70;;
68523;SDS011;55524;51.380;13.372;2023-08-31T06:22:22;4.30;;;3.20;;
68523;SDS011;55524;51.380;13.372;2023-08-31T06:24:49;10.57;;;4.70;;
68523;SDS011;55524;51.380;13.372;2023-08-31T06:27:17;5.65;;;3.70;;
68523;SDS011;55524;51.380;13.372;2023-08-31T06:29:43;21.70;;;4.50;;
68523;SDS011;55524;51.380;13.372;2023-08-31T06:32:10;5.65;;;3.40;;
68523;SDS011;55524;51.380;13.372;2023-08-31T06:34:36;4.88;;;3.47;;
68523;SDS011;55524;51.380;13.372;2023-08-31T06:37:02;7.25;;;4.07;;
68523;SDS011;55524;51.380;13.372;2023-08-31T06:39:28;5.38;;;3.60;;
68523;SDS011;55524;51.380;13.372;2023-08-31T06:41:55;6.45;;;4.13;;
68523;SDS011;55524;51.380;13.372;2023-08-31T06:44:21;6.68;;;3.88;;
68523;SDS011;55524;51.380;13.372;2023-08-31T06:46:48;5.20;;;3.35;;
68523;SDS011;55524;51.380;13.372;2023-08-31T06:49:14;4.45;;;3.40;;
68523;SDS011;55524;51.380;13.372;2023-08-31T06:51:40;5.65;;;3.75;;
68523;SDS011;55524;51.380;13.372;2023-08-31T06:54:06;4.53;;;3.78;;
68523;SDS011;55524;51.380;13.372;2023-08-31T06:56:33;7.47;;;3.70;;
68523;SDS011;55524;51.380;13.372;2023-08-31T06:58:59;8.27;;;3.53;;
68523;SDS011;55524;51.380;13.372;2023-08-31T07:01:26;6.97;;;3.25;;
68523;SDS011;55524;51.380;13.372;2023-08-31T07:03:53;4.97;;;3.33;;
68523;SDS011;55524;51.380;13.372;2023-08-31T07:06:19;4.57;;;3.08;;
68523;SDS011;55524;51.380;13.372;2023-08-31T07:08:46;8.85;;;3.47;;
68523;SDS011;55524;51.380;13.372;2023-08-31T07:11:13;9.65;;;3.72;;
68523;SDS011;55524;51.380;13.372;2023-08-31T07:13:40;6.80;;;3.72;;
68523;SDS011;55524;51.380;13.372;2023-08-31T07:16:06;5.88;;;3.10;;
68523;SDS011;55524;51.380;13.372;2023-08-31T07:18:33;7.38;;;3.45;;
68523;SDS011;55524;51.380;13.372;2023-08-31T07:21:00;4.03;;;3.08;;
68523;SDS011;55524;51.380;13.372;2023-08-31T07:23:26;6.43;;;2.95;;
68523;SDS011;55524;51.380;13.372;2023-08-31T07:25:52;4.40;;;3.55;;
68523;SDS011;55524;51.380;13.372;2023-08-31T07:28:22;5.90;;;2.85;;
68523;SDS011;55524;51.380;13.372;2023-08-31T07:30:49;7.60;;;2.90;;
68523;SDS011;55524;51.380;13.372;2023-08-31T07:33:25;5.22;;;3.03;;
68523;SDS011;55524;51.380;13.372;2023-08-31T07:35:51;4.82;;;2.88;;
68523;SDS011;55524;51.380;13.372;2023-08-31T07:38:17;12.63;;;3.45;;
68523;SDS011;55524;51.380;13.372;2023-08-31T07:40:43;7.28;;;3.15;;
68523;SDS011;55524;51.380;13.372;2023-08-31T07:43:10;6.45;;;2.40;;
68523;SDS011;55524;51.380;13.372;2023-08-31T07:45:36;11.13;;;3.50;;
68523;SDS011;55524;51.380;13.372;2023-08-31T07:48:02;5.38;;;2.58;;
68523;SDS011;55524;51.380;13.372;2023-08-31T07:50:30;6.13;;;2.50;;
68523;SDS011;55524;51.380;13.372;2023-08-31T07:52:56;4.30;;;2.40;;
68523;SDS011;55524;51.380;13.372;2023-08-31T07:55:22;2.47;;;2.00;;
68523;SDS011;55524;51.380;13.372;2023-08-31T07:57:48;4.43;;;1.95;;
68523;SDS011;55524;51.380;13.372;2023-08-31T08:00:15;5.07;;;2.65;;
68523;SDS011;55524;51.380;13.372;2023-08-31T08:02:41;14.57;;;3.15;;
68523;SDS011;55524;51.380;13.372;2023-08-31T08:05:07;11.07;;;2.80;;
68523;SDS011;55524;51.380;13.372;2023-08-31T08:07:34;4.38;;;2.60;;
68523;SDS011;55524;51.380;13.372;2023-08-31T08:10:00;4.72;;;2.22;;
68523;SDS011;55524;51.380;13.372;2023-08-31T08:12:27;6.40;;;2.47;;
68523;SDS011;55524;51.380;13.372;2023-08-31T08:15:01;3.38;;;2.60;;
68523;SDS011;55524;51.380;13.372;2023-08-31T08:17:28;3.40;;;1.98;;
68523;SDS011;55524;51.380;13.372;2023-08-31T08:19:54;7.93;;;2.58;;
68523;SDS011;55524;51.380;13.372;2023-08-31T08:22:20;7.95;;;2.40;;
68523;SDS011;55524;51.380;13.372;2023-08-31T08:24:46;7.82;;;2.20;;
68523;SDS011;55524;51.380;13.372;2023-08-31T08:27:13;5.70;;;2.10;;
68523;SDS011;55524;51.380;13.372;2023-08-31T08:29:39;8.43;;;3.00;;
68523;SDS011;55524;51.380;13.372;2023-08-31T08:32:05;3.33;;;1.80;;
68523;SDS011;55524;51.380;13.372;2023-08-31T08:34:33;4.88;;;1.80;;
68523;SDS011;55524;51.380;13.372;2023-08-31T08:37:00;7.43;;;1.55;;
68523;SDS011;55524;51.380;13.372;2023-08-31T08:39:26;2.53;;;1.73;;
68523;SDS011;55524;51.380;13.372;2023-08-31T08:41:52;7.05;;;1.70;;
68523;SDS011;55524;51.380;13.372;2023-08-31T08:44:22;3.58;;;1.27;;
68523;SDS011;55524;51.380;13.372;2023-08-31T08:46:51;4.45;;;1.40;;
68523;SDS011;55524;51.380;13.372;2023-08-31T08:49:19;3.35;;;1.30;;
68523;SDS011;55524;51.380;13.372;2023-08-31T08:51:48;3.15;;;1.50;;
68523;SDS011;55524;51.380;13.372;2023-08-31T08:54:16;4.22;;;1.42;;
68523;SDS011;55524;51.380;13.372;2023-08-31T08:56:47;3.05;;;1.50;;
68523;SDS011;55524;51.380;13.372;2023-08-31T08:59:13;2.50;;;1.20;;
68523;SDS011;55524;51.380;13.372;2023-08-31T09:01:40;3.50;;;1.30;;
68523;SDS011;55524;51.380;13.372;2023-08-31T09:04:08;1.77;;;1.33;;
68523;SDS011;55524;51.380;13.372;2023-08-31T09:06:35;4.10;;;1.40;;
68523;SDS011;55524;51.380;13.372;2023-08-31T09:09:01;5.47;;;1.30;;
68523;SDS011;55524;51.380;13.372;2023-08-31T09:11:28;4.32;;;1.10;;
68523;SDS011;55524;51.380;13.372;2023-08-31T09:13:56;3.40;;;1.40;;
68523;SDS011;55524;51.380;13.372;2023-08-31T09:16:26;3.72;;;1.38;;
68523;SDS011;55524;51.380;13.372;2023-08-31T09:18:54;3.00;;;1.42;;
68523;SDS011;55524;51.380;13.372;2023-08-31T09:21:22;3.58;;;1.60;;
68523;SDS011;55524;51.380;13.372;2023-08-31T09:24:01;3.60;;;1.65;;
68523;SDS011;55524;51.380;13.372;2023-08-31T09:26:27;4.22;;;1.83;;
68523;SDS011;55524;51.380;13.372;2023-08-31T09:28:59;6.22;;;1.73;;
68523;SDS011;55524;51.380;13.372;2023-08-31T09:31:29;4.13;;;1.60;;
68523;SDS011;55524;51.380;13.372;2023-08-31T09:33:56;4.43;;;2.30;;
68523;SDS011;55524;51.380;13.372;2023-08-31T09:36:22;3.90;;;2.20;;
68523;SDS011;55524;51.380;13.372;2023-08-31T09:38:48;3.90;;;2.15;;
68523;SDS011;55524;51.380;13.372;2023-08-31T09:41:15;3.28;;;2.00;;
68523;SDS011;55524;51.380;13.372;2023-08-31T09:43:42;5.03;;;2.22;;
68523;SDS011;55524;51.380;13.372;2023-08-31T09:46:08;5.50;;;2.35;;
68523;SDS011;55524;51.380;13.372;2023-08-31T09:48:38;4.47;;;2.42;;
68523;SDS011;55524;51.380;13.372;2023-08-31T09:51:07;3.58;;;2.10;;
68523;SDS011;55524;51.380;13.372;2023-08-31T09:53:35;3.95;;;2.47;;
68523;SDS011;55524;51.380;13.372;2023-08-31T09:56:04;8.32;;;2.25;;
68523;SDS011;55524;51.380;13.372;2023-08-31T09:58:31;5.97;;;2.38;;
68523;SDS011;55524;51.380;13.372;2023-08-31T10:00:59;6.80;;;2.40;;
68523;SDS011;55524;51.380;13.372;2023-08-31T10:03:26;3.03;;;2.50;;
68523;SDS011;55524;51.380;13.372;2023-08-31T10:05:53;4.60;;;2.40;;
68523;SDS011;55524;51.380;13.372;2023-08-31T10:08:20;5.43;;;2.83;;
68523;SDS011;55524;51.380;13.372;2023-08-31T10:10:47;5.38;;;2.63;;
68523;SDS011;55524;51.380;13.372;2023-08-31T10:13:13;5.50;;;2.60;;
68523;SDS011;55524;51.380;13.372;2023-08-31T10:15:41;10.40;;;2.50;;
68523;SDS011;55524;51.380;13.372;2023-08-31T10:18:09;9.45;;;2.30;;
68523;SDS011;55524;51.380;13.372;2023-08-31T10:20:35;2.25;;;2.05;;
68523;SDS011;55524;51.380;13.372;2023-08-31T10:23:05;5.72;;;2.30;;
68523;SDS011;55524;51.380;13.372;2023-08-31T10:31:02;4.93;;;1.77;;
68523;SDS011;55524;51.380;13.372;2023-08-31T10:33:42;2.33;;;2.05;;
68523;SDS011;55524;51.380;13.372;2023-08-31T10:36:12;5.82;;;2.03;;
68523;SDS011;55524;51.380;13.372;2023-08-31T10:39:06;2.38;;;2.03;;
68523;SDS011;55524;51.380;13.372;2023-08-31T10:41:38;2.72;;;2.28;;
68523;SDS011;55524;51.380;13.372;2023-08-31T10:46:49;6.95;;;2.50;;
68523;SDS011;55524;51.380;13.372;2023-08-31T10:49:17;3.05;;;2.58;;
68523;SDS011;55524;51.380;13.372;2023-08-31T10:51:45;3.00;;;2.20;;
68523;SDS011;55524;51.380;13.372;2023-08-31T10:59:22;1.63;;;1.13;;
68523;SDS011;55524;51.380;13.372;2023-08-31T11:01:53;3.08;;;1.45;;
68523;SDS011;55524;51.380;13.372;2023-08-31T11:04:20;3.35;;;1.40;;
68523;SDS011;55524;51.380;13.372;2023-08-31T11:06:48;1.48;;;1.15;;
68523;SDS011;55524;51.380;13.372;2023-08-31T11:09:18;1.50;;;1.00;;
68523;SDS011;55524;51.380;13.372;2023-08-31T11:11:46;1.08;;;0.93;;
68523;SDS011;55524;51.380;13.372;2023-08-31T11:14:14;3.35;;;0.70;;
68523;SDS011;55524;51.380;13.372;2023-08-31T11:16:41;0.90;;;0.60;;
68523;SDS011;55524;51.380;13.372;2023-08-31T11:19:08;0.85;;;0.60;;
68523;SDS011;55524;51.380;13.372;2023-08-31T11:21:36;0.70;;;0.70;;
68523;SDS011;55524;51.380;13.372;2023-08-31T11:24:02;3.03;;;0.65;;
68523;SDS011;55524;51.380;13.372;2023-08-31T11:26:32;0.65;;;0.60;;
68523;SDS011;55524;51.380;13.372;2023-08-31T11:28:58;2.40;;;0.90;;
68523;SDS011;55524;51.380;13.372;2023-08-31T11:31:24;1.90;;;0.60;;
68523;SDS011;55524;51.380;13.372;2023-08-31T11:33:51;8.95;;;1.20;;
68523;SDS011;55524;51.380;13.372;2023-08-31T11:36:21;4.28;;;0.80;;
68523;SDS011;55524;51.380;13.372;2023-08-31T11:38:49;3.08;;;1.00;;
68523;SDS011;55524;51.380;13.372;2023-08-31T11:41:15;1.77;;;0.80;;
68523;SDS011;55524;51.380;13.372;2023-08-31T11:43:42;1.08;;;0.88;;
68523;SDS011;55524;51.380;13.372;2023-08-31T11:46:09;2.50;;;0.90;;
68523;SDS011;55524;51.380;13.372;2023-08-31T11:48:36;1.35;;;0.90;;
68523;SDS011;55524;51.380;13.372;2023-08-31T11:51:03;4.20;;;1.17;;
68523;SDS011;55524;51.380;13.372;2023-08-31T11:53:29;2.45;;;1.02;;
68523;SDS011;55524;51.380;13.372;2023-08-31T11:55:55;4.43;;;1.25;;
68523;SDS011;55524;51.380;13.372;2023-08-31T11:58:22;3.20;;;1.30;;
68523;SDS011;55524;51.380;13.372;2023-08-31T12:00:54;4.18;;;1.35;;
68523;SDS011;55524;51.380;13.372;2023-08-31T12:03:24;3.50;;;1.05;;
68523;SDS011;55524;51.380;13.372;2023-08-31T12:05:52;5.28;;;1.20;;
68523;SDS011;55524;51.380;13.372;2023-08-31T12:08:26;1.40;;;1.30;;
68523;SDS011;55524;51.380;13.372;2023-08-31T12:10:53;2.72;;;1.00;;
68523;SDS011;55524;51.380;13.372;2023-08-31T12:13:21;1.55;;;1.35;;
68523;SDS011;55524;51.380;13.372;2023-08-31T12:15:53;1.38;;;1.13;;
68523;SDS011;55524;51.380;13.372;2023-08-31T12:18:20;2.58;;;1.35;;
68523;SDS011;55524;51.380;13.372;2023-08-31T12:20:50;4.07;;;1.60;;
68523;SDS011;55524;51.380;13.372;2023-08-31T12:23:18;3.47;;;1.60;;
68523;SDS011;55524;51.380;13.372;2023-08-31T12:25:50;2.25;;;1.48;;
68523;SDS011;55524;51.380;13.372;2023-08-31T12:28:18;1.90;;;1.63;;
68523;SDS011;55524;51.380;13.372;2023-08-31T12:30:47;2.67;;;1.40;;
68523;SDS011;55524;51.380;13.372;2023-08-31T12:33:14;2.22;;;1.60;;
68523;SDS011;55524;51.380;13.372;2023-08-31T12:35:41;3.67;;;1.80;;
68523;SDS011;55524;51.380;13.372;2023-08-31T12:38:07;5.10;;;1.60;;
68523;SDS011;55524;51.380;13.372;2023-08-31T12:40:34;1.77;;;1.50;;
68523;SDS011;55524;51.380;13.372;2023-08-31T12:43:01;3.20;;;1.50;;
68523;SDS011;55524;51.380;13.372;2023-08-31T12:45:27;2.33;;;1.38;;
68523;SDS011;55524;51.380;13.372;2023-08-31T12:47:53;2.00;;;1.17;;
68523;SDS011;55524;51.380;13.372;2023-08-31T12:50:20;5.45;;;1.50;;
68523;SDS011;55524;51.380;13.372;2023-08-31T12:52:46;3.33;;;1.50;;
68523;SDS011;55524;51.380;13.372;2023-08-31T12:55:13;1.90;;;1.20;;
68523;SDS011;55524;51.380;13.372;2023-08-31T12:57:39;2.25;;;1.45;;
68523;SDS011;55524;51.380;13.372;2023-08-31T13:00:07;8.65;;;1.50;;
68523;SDS011;55524;51.380;13.372;2023-08-31T13:02:37;4.30;;;1.40;;
68523;SDS011;55524;51.380;13.372;2023-08-31T13:05:04;4.38;;;1.40;;
68523;SDS011;55524;51.380;13.372;2023-08-31T13:07:31;3.38;;;1.30;;
68523;SDS011;55524;51.380;13.372;2023-08-31T13:09:59;3.33;;;1.30;;
68523;SDS011;55524;51.380;13.372;2023-08-31T13:12:26;1.27;;;1.17;;
68523;SDS011;55524;51.380;13.372;2023-08-31T13:14:52;5.28;;;1.00;;
68523;SDS011;55524;51.380;13.372;2023-08-31T13:17:18;4.38;;;1.15;;
68523;SDS011;55524;51.380;13.372;2023-08-31T13:19:45;7.05;;;1.25;;
68523;SDS011;55524;51.380;13.372;2023-08-31T13:22:11;1.63;;;1.05;;
68523;SDS011;55524;51.380;13.372;2023-08-31T13:24:40;3.67;;;1.23;;
68523;SDS011;55524;51.380;13.372;2023-08-31T13:27:06;13.50;;;1.33;;
68523;SDS011;55524;51.380;13.372;2023-08-31T13:29:33;1.88;;;0.98;;
68523;SDS011;55524;51.380;13.372;2023-08-31T13:31:59;4.40;;;0.93;;
68523;SDS011;55524;51.380;13.372;2023-08-31T13:34:25;4.75;;;1.17;;
68523;SDS011;55524;51.380;13.372;2023-08-31T13:36:52;3.67;;;1.10;;
68523;SDS011;55524;51.380;13.372;2023-08-31T13:39:19;1.35;;;0.93;;
68523;SDS011;55524;51.380;13.372;2023-08-31T13:41:45;2.03;;;1.10;;
68523;SDS011;55524;51.380;13.372;2023-08-31T13:44:11;1.05;;;1.00;;
68523;SDS011;55524;51.380;13.372;2023-08-31T13:46:37;10.20;;;1.20;;
68523;SDS011;55524;51.380;13.372;2023-08-31T13:49:04;2.13;;;1.00;;
68523;SDS011;55524;51.380;13.372;2023-08-31T13:51:30;2.55;;;0.90;;
68523;SDS011;55524;51.380;13.372;2023-08-31T13:53:56;2.22;;;0.98;;
68523;SDS011;55524;51.380;13.372;2023-08-31T13:56:22;3.92;;;0.90;;
68523;SDS011;55524;51.380;13.372;2023-08-31T13:58:49;4.50;;;0.93;;
68523;SDS011;55524;51.380;13.372;2023-08-31T14:01:15;44.38;;;5.20;;
68523;SDS011;55524;51.380;13.372;2023-08-31T14:03:41;1.48;;;0.90;;
68523;SDS011;55524;51.380;13.372;2023-08-31T14:06:08;4.60;;;0.93;;
68523;SDS011;55524;51.380;13.372;2023-08-31T14:08:34;0.80;;;0.80;;
68523;SDS011;55524;51.380;13.372;2023-08-31T14:11:00;2.13;;;1.00;;
68523;SDS011;55524;51.380;13.372;2023-08-31T14:13:27;1.98;;;0.80;;
68523;SDS011;55524;51.380;13.372;2023-08-31T14:15:53;0.80;;;0.80;;
68523;SDS011;55524;51.380;13.372;2023-08-31T14:18:19;1.00;;;0.80;;
68523;SDS011;55524;51.380;13.372;2023-08-31T14:20:46;2.63;;;0.80;;
68523;SDS011;55524;51.380;13.372;2023-08-31T14:23:13;5.00;;;1.00;;
68523;SDS011;55524;51.380;13.372;2023-08-31T14:25:39;1.85;;;1.00;;
68523;SDS011;55524;51.380;13.372;2023-08-31T14:28:05;2.65;;;0.98;;
68523;SDS011;55524;51.380;13.372;2023-08-31T14:30:32;7.40;;;1.00;;
68523;SDS011;55524;51.380;13.372;2023-08-31T14:33:00;2.10;;;0.90;;
68523;SDS011;55524;51.380;13.372;2023-08-31T14:35:27;2.70;;;0.88;;
68523;SDS011;55524;51.380;13.372;2023-08-31T14:37:53;2.70;;;0.90;;
68523;SDS011;55524;51.380;13.372;2023-08-31T14:40:19;1.75;;;0.75;;
68523;SDS011;55524;51.380;13.372;2023-08-31T14:42:46;0.80;;;0.70;;
68523;SDS011;55524;51.380;13.372;2023-08-31T14:45:12;1.63;;;0.90;;
68523;SDS011;55524;51.380;13.372;2023-08-31T14:47:38;2.08;;;1.00;;
68523;SDS011;55524;51.380;13.372;2023-08-31T14:50:04;1.00;;;0.90;;
68523;SDS011;55524;51.380;13.372;2023-08-31T14:52:32;2.67;;;1.00;;